Overview Statistics Trail Chart Weather Telemetry Raw packets
 

This is the latest recevied packets stored in our database for station/object DO7RSR-12. If no packets are shown the sender has not sent any packets the latest 24 hours.

If you compare the raw packets with similar data from other websites it may differ (especially the path), the reason is that we are not collecting packets from the same APRS-IS servers. Each APRS-IS server performes duplicate filtering, and which packet that is considered to be a duplicate may differ depending on which APRS-IS server you receive your data from.

<< 1 2 3 4 >>

1788572231: DO7RSR-12>APRSGW,TCPIP*,qAR,DO7RSR-12:T#458,1003.4,24.7,56.3,1026.3,0.0,00000000

1788572231: DO7RSR-12>APRSGW,TCPIP*,qAR,DO7RSR-12:!4832.32N/00755.34E#MC GW on duty#DO7RSR-12/B=100/A=000646

1788570419: DO7RSR-12>APRSMC,TCPIP*,qAR,DC0PP-2:T#012,1002.7,24.9,55.0,1025.5,0.0,00000000

1788570419: DO7RSR-12>APRSMC,TCPIP*,qAR,DC0PP-2:!4832.32N/00755.34E#MC GW on duty#DO7RSR-12/B=100/A=000646

1788570416: DO7RSR-12>APRSGW,TCPIP*,qAR,DO7RSR-12:T#457,1002.7,24.9,55.0,1025.5,0.0,00000000

1788570416: DO7RSR-12>APRSGW,TCPIP*,qAR,DO7RSR-12:!4832.32N/00755.34E#MC GW on duty#DO7RSR-12/B=100/A=000646

1788568601: DO7RSR-12>APRSGW,TCPIP*,qAR,DO7RSR-12:T#456,1002.5,25.0,55.1,1025.3,0.0,00000000

1788568601: DO7RSR-12>APRSGW,TCPIP*,qAR,DO7RSR-12:!4832.32N/00755.34E#MC GW on duty#DO7RSR-12/B=100/A=000646

1788566788: DO7RSR-12>APRSMC,TCPIP*,qAR,DJ0JJ-12::DO7RSR-12:UNIT.hPa,C deg,%,hPa,C deg,Y/N,O/N,O/N,O/N,O/N,O/N,O/N,O/N

1788566788: DO7RSR-12>APRSMC,TCPIP*,qAR,DJ0JJ-12::DO7RSR-12:PARM.Press,Temp.in,Hum,QNH,Temp.out,track,-,-,-,-,-,-,-

1788566788: DO7RSR-12>APRSMC,TCPIP*,qAR,DJ0JJ-12:T#011,1002.0,25.0,54.9,1024.9,0.0,00000000

1788566788: DO7RSR-12>APRSMC,TCPIP*,qAR,DJ0JJ-12::DO7RSR-12:EQNS.0,1,0,0,1,0,0,1,0,0,1,0,0,1,0

1788566788: DO7RSR-12>APRSMC,TCPIP*,qAR,DJ0JJ-12:!4832.32N/00755.34E#MC GW on duty#DO7RSR-12/B=100/A=000646

1788566786: DO7RSR-12>APRSGW,TCPIP*,qAR,DO7RSR-12:T#455,1002.0,25.0,54.9,1024.9,0.0,00000000

1788566786: DO7RSR-12>APRSGW,TCPIP*,qAR,DO7RSR-12:!4832.32N/00755.34E#MC GW on duty#DO7RSR-12/B=100/A=000646

1788564971: DO7RSR-12>APRSGW,TCPIP*,qAR,DO7RSR-12:!4832.32N/00755.34E#MC GW on duty#DO7RSR-12/B=100/A=000646

1788564971: DO7RSR-12>APRSGW,TCPIP*,qAR,DO7RSR-12:T#454,1001.8,25.1,54.3,1024.6,0.0,00000000

1788563156: DO7RSR-12>APRSGW,TCPIP*,qAR,DO7RSR-12:T#453,1001.6,25.1,54.0,1024.4,0.0,00000000

1788563156: DO7RSR-12>APRSGW,TCPIP*,qAR,DO7RSR-12:!4832.32N/00755.34E#MC GW on duty#DO7RSR-12/B=100/A=000646

1788561344: DO7RSR-12>APRSMC,TCPIP*,qAR,DC0PP-2:T#010,1001.4,25.2,53.6,1024.2,0.0,00000000

1788561344: DO7RSR-12>APRSMC,TCPIP*,qAR,DC0PP-2:!4832.32N/00755.34E#MC GW on duty#DO7RSR-12/B=100/A=000646

1788561341: DO7RSR-12>APRSGW,TCPIP*,qAR,DO7RSR-12:T#452,1001.4,25.2,53.6,1024.2,0.0,00000000

1788561341: DO7RSR-12>APRSGW,TCPIP*,qAR,DO7RSR-12:!4832.32N/00755.34E#MC GW on duty#DO7RSR-12/B=100/A=000646

1788559525: DO7RSR-12>APRSGW,TCPIP*,qAR,DO7RSR-12::DO7RSR-12:PARM.Press,Temp.in,Hum,QNH,Temp.out,track,-,-,-,-,-,-,-

1788559525: DO7RSR-12>APRSGW,TCPIP*,qAR,DO7RSR-12:T#451,1001.0,25.2,52.6,1023.8,0.0,00000000